TGZ925 UUWW-UGTB
Flight info
| Callsign | TGZ925 |
|---|---|
| Flight time | 2h 24m |
| Altitude | 39000 |
| Route | TOGMO M56 ULKID M56 ABAGI B105 NIMTA B105 NATIT SLK ZNL MKL KUFAN |
| Aircraft | B738/M-SDRWY/S |
Departure
| Time | 2026-04-23 13:22 |
|---|---|
| Airport | Vnukovo International Airport (UUWW) |
Arrival
| Time | 2026-04-23 15:46 |
|---|---|
| Airport | Tbilisi International Airport (UGTB) |
| Time | Latitude | Longitude | Altitude | Speed | Heading |
|---|---|---|---|---|---|
| 2026-04-23 12:41 | 55.60184 | 37.28375 | 693 ft | 0 kts | 355° |
| 2026-04-23 13:14 | 55.60180 | 37.28375 | 693 ft | 2 kts | 355° |
| 2026-04-23 13:14 | 55.60164 | 37.28377 | 686 ft | 2 kts | 355° |
| 2026-04-23 13:15 | 55.60148 | 37.28380 | 684 ft | 2 kts | 355° |
| 2026-04-23 13:15 | 55.60131 | 37.28382 | 687 ft | 2 kts | 7° |
| 2026-04-23 13:15 | 55.60116 | 37.28371 | 684 ft | 2 kts | 71° |
| 2026-04-23 13:15 | 55.60115 | 37.28357 | 684 ft | 1 kts | 89° |
| 2026-04-23 13:19 | 55.60112 | 37.28376 | 688 ft | 4 kts | 104° |
| 2026-04-23 13:19 | 55.60115 | 37.28462 | 690 ft | 10 kts | 66° |
| 2026-04-23 13:19 | 55.60172 | 37.28579 | 685 ft | 14 kts | 46° |
| 2026-04-23 13:20 | 55.60212 | 37.28694 | 689 ft | 6 kts | 111° |
| 2026-04-23 13:20 | 55.60182 | 37.28760 | 690 ft | 8 kts | 134° |
| 2026-04-23 13:20 | 55.60127 | 37.28853 | 693 ft | 14 kts | 146° |
| 2026-04-23 13:20 | 55.60027 | 37.28909 | 688 ft | 16 kts | 165° |
| 2026-04-23 13:21 | 55.59923 | 37.28957 | 687 ft | 15 kts | 166° |
| 2026-04-23 13:21 | 55.59840 | 37.28992 | 689 ft | 9 kts | 171° |
| 2026-04-23 13:21 | 55.59780 | 37.28927 | 687 ft | 11 kts | 245° |
| 2026-04-23 13:21 | 55.59757 | 37.28827 | 691 ft | 31 kts | 248° |
| 2026-04-23 13:22 | 55.59583 | 37.28049 | 691 ft | 103 kts | 249° |
| 2026-04-23 13:22 | 55.59244 | 37.26514 | 699 ft | 162 kts | 252° |
| 2026-04-23 13:22 | 55.58799 | 37.24487 | 1128 ft | 182 kts | 253° |
| 2026-04-23 13:22 | 55.58287 | 37.22463 | 2132 ft | 180 kts | 246° |
| 2026-04-23 13:23 | 55.57495 | 37.20676 | 2878 ft | 191 kts | 231° |
| 2026-04-23 13:23 | 55.56451 | 37.19048 | 3148 ft | 215 kts | 221° |
| 2026-04-23 13:23 | 55.55175 | 37.17670 | 3838 ft | 210 kts | 210° |
| 2026-04-23 13:23 | 55.53897 | 37.16509 | 4542 ft | 206 kts | 207° |
| 2026-04-23 13:24 | 55.52589 | 37.15363 | 4988 ft | 216 kts | 207° |
| 2026-04-23 13:24 | 55.51218 | 37.14152 | 5405 ft | 224 kts | 207° |
| 2026-04-23 13:24 | 55.49786 | 37.12922 | 5812 ft | 233 kts | 200° |
| 2026-04-23 13:24 | 55.48183 | 37.12683 | 6225 ft | 236 kts | 161° |
| 2026-04-23 13:25 | 55.46798 | 37.14129 | 6640 ft | 234 kts | 126° |
| 2026-04-23 13:25 | 55.45827 | 37.16461 | 7087 ft | 241 kts | 119° |
| 2026-04-23 13:25 | 55.44892 | 37.18995 | 7504 ft | 253 kts | 119° |
| 2026-04-23 13:25 | 55.43910 | 37.21665 | 7927 ft | 266 kts | 119° |
| 2026-04-23 13:26 | 55.42880 | 37.24470 | 8356 ft | 279 kts | 120° |
| 2026-04-23 13:26 | 55.41801 | 37.27404 | 8784 ft | 292 kts | 120° |
| 2026-04-23 13:26 | 55.40667 | 37.30481 | 9217 ft | 306 kts | 120° |
| 2026-04-23 13:26 | 55.39480 | 37.33690 | 9619 ft | 319 kts | 121° |
| 2026-04-23 13:27 | 55.38246 | 37.37025 | 10066 ft | 329 kts | 121° |
| 2026-04-23 13:27 | 55.36974 | 37.40403 | 10695 ft | 334 kts | 125° |
| 2026-04-23 13:27 | 55.35399 | 37.43454 | 11325 ft | 340 kts | 134° |
| 2026-04-23 13:27 | 55.33703 | 37.46328 | 11940 ft | 345 kts | 135° |
| 2026-04-23 13:28 | 55.31946 | 37.49243 | 12591 ft | 350 kts | 135° |
| 2026-04-23 13:28 | 55.30162 | 37.52201 | 13254 ft | 355 kts | 136° |
| 2026-04-23 13:28 | 55.28335 | 37.55246 | 13860 ft | 360 kts | 136° |
| 2026-04-23 13:28 | 55.26513 | 37.58300 | 14481 ft | 364 kts | 136° |
| 2026-04-23 13:29 | 55.24676 | 37.61391 | 15110 ft | 368 kts | 136° |
| 2026-04-23 13:29 | 55.22818 | 37.64524 | 15753 ft | 372 kts | 136° |
| 2026-04-23 13:29 | 55.20943 | 37.67688 | 16407 ft | 375 kts | 137° |
| 2026-04-23 13:29 | 55.19061 | 37.70866 | 17069 ft | 377 kts | 137° |
| 2026-04-23 13:30 | 55.17219 | 37.74156 | 17726 ft | 381 kts | 131° |
| 2026-04-23 13:30 | 55.15749 | 37.78033 | 18316 ft | 385 kts | 120° |
| 2026-04-23 13:30 | 55.14569 | 37.82263 | 18561 ft | 398 kts | 118° |
| 2026-04-23 13:30 | 55.13364 | 37.86731 | 18679 ft | 413 kts | 117° |
| 2026-04-23 13:31 | 55.12134 | 37.91327 | 19018 ft | 420 kts | 117° |
| 2026-04-23 13:31 | 55.10893 | 37.95953 | 19533 ft | 422 kts | 118° |
| 2026-04-23 13:31 | 55.09638 | 38.00600 | 20067 ft | 424 kts | 118° |
| 2026-04-23 13:31 | 55.08368 | 38.05267 | 20545 ft | 427 kts | 118° |
| 2026-04-23 13:32 | 55.07083 | 38.09956 | 21012 ft | 430 kts | 118° |
| 2026-04-23 13:32 | 55.05783 | 38.14676 | 21478 ft | 433 kts | 119° |
| 2026-04-23 13:32 | 55.04915 | 38.17815 | 21774 ft | 435 kts | 119° |
| 2026-04-23 13:32 | 55.03597 | 38.22572 | 22232 ft | 437 kts | 119° |
| 2026-04-23 13:33 | 55.02265 | 38.27364 | 22678 ft | 440 kts | 120° |
| 2026-04-23 13:33 | 55.00923 | 38.32183 | 23062 ft | 443 kts | 120° |
| 2026-04-23 13:33 | 54.99573 | 38.37023 | 23396 ft | 445 kts | 120° |
| 2026-04-23 13:33 | 54.98215 | 38.41884 | 23718 ft | 448 kts | 120° |
| 2026-04-23 13:34 | 54.96843 | 38.46783 | 24046 ft | 451 kts | 120° |
| 2026-04-23 13:34 | 54.95462 | 38.51704 | 24343 ft | 453 kts | 120° |
| 2026-04-23 13:34 | 54.94073 | 38.56641 | 24652 ft | 456 kts | 120° |
| 2026-04-23 13:34 | 54.92674 | 38.61606 | 24953 ft | 458 kts | 120° |
| 2026-04-23 13:35 | 54.91263 | 38.66601 | 25248 ft | 461 kts | 120° |
| 2026-04-23 13:35 | 54.89842 | 38.71621 | 25533 ft | 464 kts | 120° |
| 2026-04-23 13:35 | 54.88409 | 38.76671 | 25803 ft | 467 kts | 120° |
| 2026-04-23 13:35 | 54.86950 | 38.81803 | 26100 ft | 469 kts | 120° |
| 2026-04-23 13:36 | 54.85504 | 38.86882 | 26406 ft | 470 kts | 120° |
| 2026-04-23 13:36 | 54.84053 | 38.91965 | 26772 ft | 470 kts | 120° |
| 2026-04-23 13:36 | 54.82602 | 38.97039 | 27187 ft | 469 kts | 120° |
| 2026-04-23 13:36 | 54.81151 | 39.02101 | 27577 ft | 468 kts | 120° |
| 2026-04-23 13:37 | 54.79699 | 39.07155 | 27946 ft | 469 kts | 120° |
| 2026-04-23 13:37 | 54.78263 | 39.12138 | 28306 ft | 468 kts | 120° |
| 2026-04-23 13:37 | 54.76807 | 39.17183 | 28719 ft | 468 kts | 120° |
| 2026-04-23 13:37 | 54.75350 | 39.22221 | 29124 ft | 467 kts | 120° |
| 2026-04-23 13:38 | 54.73895 | 39.27239 | 29498 ft | 467 kts | 120° |
| 2026-04-23 13:38 | 54.72435 | 39.32264 | 29775 ft | 467 kts | 120° |
| 2026-04-23 13:38 | 54.70970 | 39.37295 | 30022 ft | 468 kts | 120° |
| 2026-04-23 13:38 | 54.69499 | 39.42337 | 30293 ft | 469 kts | 120° |
| 2026-04-23 13:39 | 54.68027 | 39.47369 | 30572 ft | 469 kts | 120° |
| 2026-04-23 13:39 | 54.66555 | 39.52393 | 30841 ft | 469 kts | 120° |
| 2026-04-23 13:39 | 54.65078 | 39.57424 | 31099 ft | 470 kts | 120° |
| 2026-04-23 13:39 | 54.63592 | 39.62473 | 31372 ft | 470 kts | 120° |
| 2026-04-23 13:40 | 54.62109 | 39.67502 | 31683 ft | 470 kts | 120° |
| 2026-04-23 13:40 | 54.60622 | 39.72534 | 31974 ft | 471 kts | 119° |
| 2026-04-23 13:40 | 54.59128 | 39.77575 | 32241 ft | 472 kts | 119° |
| 2026-04-23 13:40 | 54.57632 | 39.82618 | 32499 ft | 472 kts | 119° |
| 2026-04-23 13:41 | 54.56136 | 39.87647 | 32769 ft | 472 kts | 119° |
| 2026-04-23 13:41 | 54.54631 | 39.92696 | 33015 ft | 473 kts | 119° |
| 2026-04-23 13:41 | 54.53145 | 39.97671 | 33250 ft | 474 kts | 119° |
| 2026-04-23 13:41 | 54.51634 | 40.02720 | 33458 ft | 474 kts | 119° |
| 2026-04-23 13:42 | 54.50118 | 40.07772 | 33668 ft | 474 kts | 119° |
| 2026-04-23 13:42 | 54.48602 | 40.12812 | 33864 ft | 474 kts | 119° |
| 2026-04-23 13:42 | 54.47082 | 40.17856 | 34058 ft | 475 kts | 119° |
| 2026-04-23 13:42 | 54.45559 | 40.22891 | 34248 ft | 475 kts | 119° |
| 2026-04-23 13:43 | 54.44034 | 40.27925 | 34437 ft | 475 kts | 119° |
| 2026-04-23 13:43 | 54.42508 | 40.32955 | 34640 ft | 475 kts | 119° |
| 2026-04-23 13:43 | 54.40977 | 40.37993 | 34846 ft | 475 kts | 119° |
| 2026-04-23 13:43 | 54.39444 | 40.43028 | 35038 ft | 476 kts | 119° |
| 2026-04-23 13:44 | 54.37909 | 40.48058 | 35221 ft | 476 kts | 119° |
| 2026-04-23 13:44 | 54.36373 | 40.53085 | 35395 ft | 476 kts | 119° |
| 2026-04-23 13:44 | 54.34829 | 40.58124 | 35581 ft | 476 kts | 119° |
| 2026-04-23 13:44 | 54.33285 | 40.63154 | 35748 ft | 476 kts | 119° |
| 2026-04-23 13:45 | 54.31741 | 40.68172 | 35934 ft | 477 kts | 119° |
| 2026-04-23 13:45 | 54.30211 | 40.73134 | 36117 ft | 477 kts | 119° |
| 2026-04-23 13:45 | 54.28661 | 40.78152 | 36317 ft | 476 kts | 119° |
| 2026-04-23 13:46 | 54.25548 | 40.88197 | 36372 ft | 478 kts | 119° |
| 2026-04-23 13:46 | 54.22404 | 40.98207 | 36376 ft | 477 kts | 123° |
| 2026-04-23 13:46 | 54.20408 | 41.02684 | 36394 ft | 472 kts | 136° |
| 2026-04-23 13:47 | 54.17941 | 41.06335 | 36392 ft | 468 kts | 147° |
| 2026-04-23 13:47 | 54.12236 | 41.11552 | 36398 ft | 464 kts | 156° |
| 2026-04-23 13:48 | 54.06418 | 41.16328 | 36393 ft | 464 kts | 156° |
| 2026-04-23 13:48 | 54.00587 | 41.21025 | 36397 ft | 463 kts | 159° |
| 2026-04-23 13:49 | 53.94583 | 41.25086 | 36514 ft | 465 kts | 161° |
| 2026-04-23 13:49 | 53.91591 | 41.27030 | 36710 ft | 465 kts | 161° |
| 2026-04-23 13:49 | 53.88573 | 41.28997 | 36905 ft | 464 kts | 161° |
| 2026-04-23 13:49 | 53.85562 | 41.30980 | 37036 ft | 465 kts | 161° |
| 2026-04-23 13:50 | 53.82539 | 41.32987 | 37150 ft | 466 kts | 160° |
| 2026-04-23 13:50 | 53.79525 | 41.35003 | 37294 ft | 466 kts | 161° |
| 2026-04-23 13:50 | 53.76522 | 41.37015 | 37396 ft | 464 kts | 160° |
| 2026-04-23 13:51 | 53.70496 | 41.41054 | 37409 ft | 466 kts | 161° |
| 2026-04-23 13:51 | 53.64462 | 41.45087 | 37420 ft | 467 kts | 161° |
| 2026-04-23 13:52 | 53.58441 | 41.49098 | 37419 ft | 468 kts | 161° |
| 2026-04-23 13:52 | 53.52380 | 41.53124 | 37420 ft | 468 kts | 161° |
| 2026-04-23 13:53 | 53.46341 | 41.57118 | 37851 ft | 462 kts | 161° |
| 2026-04-23 13:53 | 53.43364 | 41.59086 | 38216 ft | 457 kts | 161° |
| 2026-04-23 13:53 | 53.40421 | 41.61030 | 38416 ft | 453 kts | 161° |
| 2026-04-23 13:54 | 53.34571 | 41.64879 | 38433 ft | 449 kts | 161° |
| 2026-04-23 13:54 | 53.28742 | 41.68701 | 38435 ft | 450 kts | 161° |
| 2026-04-23 13:55 | 53.22903 | 41.72515 | 38451 ft | 451 kts | 161° |
| 2026-04-23 13:55 | 53.17050 | 41.76328 | 38448 ft | 452 kts | 161° |
| 2026-04-23 13:56 | 53.11178 | 41.80148 | 38451 ft | 453 kts | 161° |
| 2026-04-23 13:56 | 53.05289 | 41.83964 | 38453 ft | 454 kts | 161° |
| 2026-04-23 13:57 | 52.99373 | 41.87789 | 38464 ft | 458 kts | 161° |
| 2026-04-23 13:57 | 52.93410 | 41.91631 | 38468 ft | 461 kts | 161° |
| 2026-04-23 13:58 | 52.87437 | 41.95468 | 38467 ft | 464 kts | 161° |
| 2026-04-23 13:58 | 52.81384 | 41.99346 | 38470 ft | 467 kts | 161° |
| 2026-04-23 13:59 | 52.75303 | 42.03229 | 38475 ft | 470 kts | 161° |
| 2026-04-23 13:59 | 52.69192 | 42.07124 | 38475 ft | 472 kts | 161° |
| 2026-04-23 14:00 | 52.64087 | 42.10366 | 38476 ft | 472 kts | 161° |
| 2026-04-23 14:00 | 52.56909 | 42.14909 | 38485 ft | 473 kts | 161° |
| 2026-04-23 14:01 | 52.50747 | 42.18796 | 38486 ft | 474 kts | 161° |
| 2026-04-23 14:01 | 52.44594 | 42.22667 | 38490 ft | 474 kts | 161° |
| 2026-04-23 14:02 | 52.38475 | 42.26505 | 38490 ft | 473 kts | 161° |
| 2026-04-23 14:02 | 52.32321 | 42.30352 | 38491 ft | 473 kts | 161° |
| 2026-04-23 14:03 | 52.26177 | 42.34184 | 38496 ft | 473 kts | 161° |
| 2026-04-23 14:03 | 52.20027 | 42.38007 | 38497 ft | 472 kts | 161° |
| 2026-04-23 14:04 | 52.13882 | 42.41816 | 38503 ft | 472 kts | 161° |
| 2026-04-23 14:04 | 52.07753 | 42.45603 | 38508 ft | 471 kts | 161° |
| 2026-04-23 14:05 | 52.01622 | 42.49381 | 38513 ft | 470 kts | 161° |
| 2026-04-23 14:05 | 51.95505 | 42.53138 | 38520 ft | 470 kts | 161° |
| 2026-04-23 14:06 | 51.89389 | 42.56891 | 38515 ft | 470 kts | 160° |
| 2026-04-23 14:06 | 51.83513 | 42.61592 | 38525 ft | 472 kts | 154° |
| 2026-04-23 14:07 | 51.77751 | 42.66684 | 38529 ft | 472 kts | 154° |
| 2026-04-23 14:07 | 51.69138 | 42.74203 | 38536 ft | 471 kts | 154° |
| 2026-04-23 14:08 | 51.63341 | 42.79163 | 38547 ft | 471 kts | 154° |
| 2026-04-23 14:08 | 51.57539 | 42.84096 | 38546 ft | 471 kts | 154° |
| 2026-04-23 14:09 | 51.51740 | 42.89010 | 38546 ft | 471 kts | 155° |
| 2026-04-23 14:09 | 51.45940 | 42.93914 | 38551 ft | 471 kts | 155° |
| 2026-04-23 14:10 | 51.40131 | 42.98812 | 38569 ft | 471 kts | 155° |
| 2026-04-23 14:10 | 51.34367 | 43.03659 | 38560 ft | 471 kts | 155° |
| 2026-04-23 14:11 | 51.28562 | 43.08526 | 38573 ft | 471 kts | 155° |
| 2026-04-23 14:11 | 51.22754 | 43.13382 | 38577 ft | 471 kts | 155° |
| 2026-04-23 14:12 | 51.16945 | 43.18225 | 38582 ft | 471 kts | 155° |
| 2026-04-23 14:12 | 51.11130 | 43.23059 | 38584 ft | 471 kts | 155° |
| 2026-04-23 14:13 | 51.05316 | 43.27878 | 38588 ft | 471 kts | 155° |
| 2026-04-23 14:13 | 50.99485 | 43.32698 | 38590 ft | 471 kts | 155° |
| 2026-04-23 14:14 | 50.93695 | 43.37470 | 38593 ft | 472 kts | 155° |
| 2026-04-23 14:14 | 50.87862 | 43.42264 | 38596 ft | 472 kts | 155° |
| 2026-04-23 14:15 | 50.82034 | 43.47040 | 38600 ft | 472 kts | 155° |
| 2026-04-23 14:15 | 50.76198 | 43.51809 | 38601 ft | 472 kts | 155° |
| 2026-04-23 14:16 | 50.70358 | 43.56569 | 38603 ft | 472 kts | 155° |
| 2026-04-23 14:16 | 50.64521 | 43.61312 | 38606 ft | 472 kts | 155° |
| 2026-04-23 14:17 | 50.59668 | 43.65245 | 38610 ft | 472 kts | 155° |
| 2026-04-23 14:17 | 50.53827 | 43.69968 | 38616 ft | 472 kts | 155° |
| 2026-04-23 14:18 | 50.47988 | 43.74674 | 38613 ft | 472 kts | 156° |
| 2026-04-23 14:18 | 50.42144 | 43.79372 | 38619 ft | 472 kts | 156° |
| 2026-04-23 14:19 | 50.36298 | 43.84060 | 38616 ft | 472 kts | 156° |
| 2026-04-23 14:19 | 50.30453 | 43.88732 | 38623 ft | 472 kts | 156° |
| 2026-04-23 14:20 | 50.24604 | 43.93395 | 38625 ft | 472 kts | 156° |
| 2026-04-23 14:20 | 50.18753 | 43.98047 | 38630 ft | 471 kts | 156° |
| 2026-04-23 14:21 | 50.12909 | 44.02681 | 38633 ft | 471 kts | 156° |
| 2026-04-23 14:21 | 50.07068 | 44.07299 | 38631 ft | 471 kts | 156° |
| 2026-04-23 14:22 | 50.01259 | 44.11880 | 38635 ft | 470 kts | 156° |
| 2026-04-23 14:22 | 49.95419 | 44.16472 | 38642 ft | 470 kts | 156° |
| 2026-04-23 14:23 | 49.89581 | 44.21050 | 38645 ft | 470 kts | 157° |
| 2026-04-23 14:23 | 49.83746 | 44.25613 | 38644 ft | 470 kts | 157° |
| 2026-04-23 14:24 | 49.77908 | 44.30166 | 38653 ft | 469 kts | 157° |
| 2026-04-23 14:24 | 49.72067 | 44.34709 | 38655 ft | 469 kts | 157° |
| 2026-04-23 14:25 | 49.66230 | 44.39237 | 38659 ft | 469 kts | 157° |
| 2026-04-23 14:25 | 49.60388 | 44.43756 | 38663 ft | 469 kts | 157° |
| 2026-04-23 14:26 | 49.54587 | 44.48232 | 38665 ft | 469 kts | 157° |
| 2026-04-23 14:26 | 49.48740 | 44.52732 | 38667 ft | 469 kts | 157° |
| 2026-04-23 14:27 | 49.42895 | 44.57217 | 38671 ft | 469 kts | 158° |
| 2026-04-23 14:27 | 49.37050 | 44.61691 | 38677 ft | 469 kts | 158° |
| 2026-04-23 14:28 | 49.31206 | 44.66152 | 38681 ft | 469 kts | 158° |
| 2026-04-23 14:28 | 49.25390 | 44.70579 | 38682 ft | 469 kts | 158° |
| 2026-04-23 14:29 | 49.19542 | 44.75019 | 38687 ft | 469 kts | 158° |
| 2026-04-23 14:29 | 49.13699 | 44.79444 | 38690 ft | 469 kts | 158° |
| 2026-04-23 14:30 | 49.07848 | 44.83864 | 38698 ft | 469 kts | 158° |
| 2026-04-23 14:30 | 49.02001 | 44.88267 | 38695 ft | 469 kts | 158° |
| 2026-04-23 14:31 | 48.96147 | 44.92666 | 38708 ft | 469 kts | 158° |
| 2026-04-23 14:31 | 48.90324 | 44.97028 | 38711 ft | 469 kts | 158° |
| 2026-04-23 14:32 | 48.84474 | 45.01401 | 38717 ft | 469 kts | 158° |
| 2026-04-23 14:32 | 48.78618 | 45.05766 | 38721 ft | 469 kts | 158° |
| 2026-04-23 14:33 | 48.72752 | 45.10127 | 38724 ft | 469 kts | 159° |
| 2026-04-23 14:33 | 48.66888 | 45.14475 | 38729 ft | 469 kts | 159° |
| 2026-04-23 14:34 | 48.61018 | 45.18816 | 38733 ft | 470 kts | 159° |
| 2026-04-23 14:34 | 48.55180 | 45.23123 | 38745 ft | 470 kts | 159° |
| 2026-04-23 14:35 | 48.49295 | 45.27453 | 38749 ft | 470 kts | 159° |
| 2026-04-23 14:35 | 48.43417 | 45.31766 | 38745 ft | 470 kts | 159° |
| 2026-04-23 14:36 | 48.37536 | 45.36071 | 38748 ft | 470 kts | 159° |
| 2026-04-23 14:36 | 48.31657 | 45.40363 | 38754 ft | 470 kts | 159° |
| 2026-04-23 14:37 | 48.25775 | 45.44646 | 38757 ft | 469 kts | 159° |
| 2026-04-23 14:37 | 48.19889 | 45.48922 | 38764 ft | 469 kts | 159° |
| 2026-04-23 14:38 | 48.14011 | 45.53180 | 38765 ft | 469 kts | 159° |
| 2026-04-23 14:38 | 48.08127 | 45.57432 | 38765 ft | 469 kts | 159° |
| 2026-04-23 14:39 | 48.02277 | 45.61648 | 38769 ft | 469 kts | 159° |
| 2026-04-23 14:39 | 47.96398 | 45.65875 | 38772 ft | 469 kts | 160° |
| 2026-04-23 14:40 | 47.90511 | 45.70096 | 38780 ft | 469 kts | 160° |
| 2026-04-23 14:40 | 47.84626 | 45.74306 | 38786 ft | 469 kts | 160° |
| 2026-04-23 14:41 | 47.78732 | 45.78511 | 38787 ft | 469 kts | 160° |
| 2026-04-23 14:41 | 47.72842 | 45.82703 | 38791 ft | 469 kts | 160° |
| 2026-04-23 14:42 | 47.66947 | 45.86888 | 38792 ft | 469 kts | 160° |
| 2026-04-23 14:42 | 47.61050 | 45.91064 | 38796 ft | 469 kts | 160° |
| 2026-04-23 14:43 | 47.55187 | 45.95205 | 38799 ft | 469 kts | 160° |
| 2026-04-23 14:43 | 47.49290 | 45.99360 | 38802 ft | 469 kts | 160° |
| 2026-04-23 14:44 | 47.43395 | 46.03503 | 38801 ft | 469 kts | 160° |
| 2026-04-23 14:44 | 47.37495 | 46.07639 | 38806 ft | 469 kts | 160° |
| 2026-04-23 14:45 | 47.31602 | 46.11761 | 38808 ft | 469 kts | 160° |
| 2026-04-23 14:45 | 47.25700 | 46.15878 | 38807 ft | 468 kts | 160° |
| 2026-04-23 14:46 | 47.19846 | 46.19951 | 38812 ft | 468 kts | 161° |
| 2026-04-23 14:46 | 47.13961 | 46.24037 | 38811 ft | 467 kts | 161° |
| 2026-04-23 14:47 | 47.08076 | 46.28112 | 38817 ft | 467 kts | 161° |
| 2026-04-23 14:47 | 47.02186 | 46.32181 | 38819 ft | 467 kts | 161° |
| 2026-04-23 14:48 | 46.96304 | 46.36233 | 38815 ft | 467 kts | 161° |
| 2026-04-23 14:48 | 46.90427 | 46.40274 | 38826 ft | 467 kts | 161° |
| 2026-04-23 14:49 | 46.84583 | 46.44281 | 38833 ft | 467 kts | 161° |
| 2026-04-23 14:49 | 46.78705 | 46.48302 | 38837 ft | 467 kts | 161° |
| 2026-04-23 14:50 | 46.72813 | 46.52322 | 38839 ft | 467 kts | 161° |
| 2026-04-23 14:50 | 46.66924 | 46.56331 | 38838 ft | 467 kts | 161° |
| 2026-04-23 14:51 | 46.61029 | 46.60334 | 38841 ft | 467 kts | 161° |
| 2026-04-23 14:51 | 46.55068 | 46.63990 | 38832 ft | 459 kts | 172° |
| 2026-04-23 14:52 | 46.48864 | 46.65842 | 38844 ft | 454 kts | 175° |
| 2026-04-23 14:52 | 46.42662 | 46.67621 | 38845 ft | 455 kts | 175° |
| 2026-04-23 14:53 | 46.36441 | 46.69447 | 38847 ft | 456 kts | 175° |
| 2026-04-23 14:53 | 46.30260 | 46.71253 | 38848 ft | 456 kts | 175° |
| 2026-04-23 14:54 | 46.24039 | 46.73058 | 38851 ft | 456 kts | 175° |
| 2026-04-23 14:54 | 46.17816 | 46.74856 | 38854 ft | 456 kts | 175° |
| 2026-04-23 14:55 | 46.11592 | 46.76648 | 38853 ft | 456 kts | 175° |
| 2026-04-23 14:55 | 46.05370 | 46.78436 | 38853 ft | 455 kts | 175° |
| 2026-04-23 14:56 | 45.99156 | 46.80218 | 38858 ft | 455 kts | 175° |
| 2026-04-23 14:56 | 45.92942 | 46.81996 | 38858 ft | 455 kts | 175° |
| 2026-04-23 14:57 | 45.86730 | 46.83768 | 38858 ft | 455 kts | 175° |
| 2026-04-23 14:57 | 45.80562 | 46.85525 | 38865 ft | 455 kts | 175° |
| 2026-04-23 14:58 | 45.74354 | 46.87289 | 38861 ft | 455 kts | 175° |
| 2026-04-23 14:58 | 45.68138 | 46.89051 | 38870 ft | 455 kts | 175° |
| 2026-04-23 14:59 | 45.61935 | 46.90806 | 38862 ft | 454 kts | 175° |
| 2026-04-23 14:59 | 45.55723 | 46.92559 | 38860 ft | 454 kts | 175° |
| 2026-04-23 15:00 | 45.49519 | 46.94306 | 38864 ft | 454 kts | 175° |
| 2026-04-23 15:00 | 45.43314 | 46.96049 | 38865 ft | 454 kts | 175° |
| 2026-04-23 15:01 | 45.37155 | 46.97776 | 38871 ft | 454 kts | 175° |
| 2026-04-23 15:01 | 45.30951 | 46.99511 | 38871 ft | 454 kts | 175° |
| 2026-04-23 15:02 | 45.24757 | 47.01240 | 38873 ft | 454 kts | 175° |
| 2026-04-23 15:02 | 45.18552 | 47.02967 | 38871 ft | 453 kts | 175° |
| 2026-04-23 15:03 | 45.12355 | 47.04689 | 38867 ft | 453 kts | 175° |
| 2026-04-23 15:03 | 45.06162 | 47.06406 | 38869 ft | 453 kts | 175° |
| 2026-04-23 15:04 | 45.00009 | 47.08108 | 38874 ft | 453 kts | 175° |
| 2026-04-23 15:04 | 44.93826 | 47.09814 | 38871 ft | 453 kts | 175° |
| 2026-04-23 15:05 | 44.87638 | 47.11518 | 38862 ft | 453 kts | 175° |
| 2026-04-23 15:05 | 44.82494 | 47.12932 | 38864 ft | 453 kts | 175° |
| 2026-04-23 15:06 | 44.76300 | 47.14631 | 38866 ft | 453 kts | 176° |
| 2026-04-23 15:06 | 44.70108 | 47.16326 | 38867 ft | 454 kts | 176° |
| 2026-04-23 15:07 | 44.63906 | 47.18019 | 38862 ft | 454 kts | 175° |
| 2026-04-23 15:07 | 44.57692 | 47.19713 | 38863 ft | 454 kts | 175° |
| 2026-04-23 15:08 | 44.51468 | 47.21405 | 38861 ft | 455 kts | 175° |
| 2026-04-23 15:09 | 44.42131 | 47.23937 | 38862 ft | 456 kts | 175° |
| 2026-04-23 15:09 | 44.35894 | 47.25623 | 38864 ft | 457 kts | 175° |
| 2026-04-23 15:10 | 44.29638 | 47.27312 | 38866 ft | 457 kts | 175° |
| 2026-04-23 15:10 | 44.23381 | 47.28997 | 38865 ft | 458 kts | 175° |
| 2026-04-23 15:11 | 44.17123 | 47.30678 | 38865 ft | 458 kts | 175° |
| 2026-04-23 15:11 | 44.10866 | 47.32356 | 38858 ft | 458 kts | 175° |
| 2026-04-23 15:12 | 44.04600 | 47.34033 | 38862 ft | 458 kts | 175° |
| 2026-04-23 15:12 | 43.98333 | 47.35706 | 38860 ft | 458 kts | 175° |
| 2026-04-23 15:13 | 43.92063 | 47.37376 | 38859 ft | 458 kts | 175° |
| 2026-04-23 15:13 | 43.85836 | 47.39032 | 38861 ft | 458 kts | 175° |
| 2026-04-23 15:14 | 43.79565 | 47.40695 | 38862 ft | 458 kts | 175° |
| 2026-04-23 15:14 | 43.73296 | 47.42354 | 38862 ft | 458 kts | 175° |
| 2026-04-23 15:15 | 43.67028 | 47.44010 | 38860 ft | 458 kts | 175° |
| 2026-04-23 15:15 | 43.60761 | 47.45661 | 38871 ft | 458 kts | 175° |
| 2026-04-23 15:16 | 43.54492 | 47.47310 | 38872 ft | 458 kts | 175° |
| 2026-04-23 15:16 | 43.48230 | 47.48954 | 38873 ft | 458 kts | 175° |
| 2026-04-23 15:17 | 43.42018 | 47.49224 | 38724 ft | 442 kts | 198° |
| 2026-04-23 15:17 | 43.39118 | 47.47929 | 38495 ft | 435 kts | 209° |
| 2026-04-23 15:17 | 43.36507 | 47.45913 | 38217 ft | 427 kts | 216° |
| 2026-04-23 15:17 | 43.34015 | 47.43722 | 37954 ft | 424 kts | 216° |
| 2026-04-23 15:18 | 43.31551 | 47.41574 | 37891 ft | 425 kts | 216° |
| 2026-04-23 15:18 | 43.26536 | 47.37252 | 37868 ft | 426 kts | 216° |
| 2026-04-23 15:19 | 43.21505 | 47.32966 | 37859 ft | 425 kts | 216° |
| 2026-04-23 15:19 | 43.16480 | 47.28706 | 37863 ft | 424 kts | 216° |
| 2026-04-23 15:20 | 43.11460 | 47.24459 | 37866 ft | 424 kts | 216° |
| 2026-04-23 15:20 | 43.06448 | 47.20226 | 37864 ft | 423 kts | 216° |
| 2026-04-23 15:21 | 43.01429 | 47.15996 | 37863 ft | 423 kts | 216° |
| 2026-04-23 15:21 | 42.96411 | 47.11773 | 37861 ft | 423 kts | 216° |
| 2026-04-23 15:22 | 42.91424 | 47.07586 | 37854 ft | 423 kts | 216° |
| 2026-04-23 15:22 | 42.86404 | 47.03378 | 37848 ft | 423 kts | 216° |
| 2026-04-23 15:23 | 42.81383 | 46.99178 | 37836 ft | 423 kts | 216° |
| 2026-04-23 15:23 | 42.76363 | 46.94987 | 37824 ft | 423 kts | 216° |
| 2026-04-23 15:24 | 42.71331 | 46.90794 | 37820 ft | 424 kts | 216° |
| 2026-04-23 15:24 | 42.66291 | 46.86602 | 37788 ft | 425 kts | 216° |
| 2026-04-23 15:25 | 42.61278 | 46.82442 | 37775 ft | 424 kts | 216° |
| 2026-04-23 15:25 | 42.56237 | 46.78265 | 37767 ft | 425 kts | 216° |
| 2026-04-23 15:26 | 42.51180 | 46.74083 | 37449 ft | 430 kts | 216° |
| 2026-04-23 15:26 | 42.48615 | 46.71962 | 37019 ft | 430 kts | 216° |
| 2026-04-23 15:26 | 42.46083 | 46.69878 | 36390 ft | 425 kts | 217° |
| 2026-04-23 15:26 | 42.43549 | 46.67790 | 35695 ft | 425 kts | 217° |
| 2026-04-23 15:27 | 42.41016 | 46.65706 | 34966 ft | 426 kts | 218° |
| 2026-04-23 15:27 | 42.38479 | 46.63618 | 34266 ft | 427 kts | 218° |
| 2026-04-23 15:27 | 42.35938 | 46.61528 | 33466 ft | 429 kts | 219° |
| 2026-04-23 15:27 | 42.33377 | 46.59423 | 32663 ft | 430 kts | 219° |
| 2026-04-23 15:28 | 42.30817 | 46.57322 | 31899 ft | 431 kts | 218° |
| 2026-04-23 15:28 | 42.28249 | 46.55216 | 31114 ft | 432 kts | 218° |
| 2026-04-23 15:28 | 42.25675 | 46.53110 | 30306 ft | 433 kts | 218° |
| 2026-04-23 15:28 | 42.23129 | 46.51027 | 29435 ft | 434 kts | 217° |
| 2026-04-23 15:29 | 42.20544 | 46.48916 | 28491 ft | 434 kts | 217° |
| 2026-04-23 15:29 | 42.17965 | 46.46811 | 27581 ft | 434 kts | 217° |
| 2026-04-23 15:29 | 42.15383 | 46.44701 | 26621 ft | 434 kts | 216° |
| 2026-04-23 15:29 | 42.12802 | 46.42572 | 25751 ft | 433 kts | 219° |
| 2026-04-23 15:30 | 42.10530 | 46.40103 | 25319 ft | 414 kts | 228° |
| 2026-04-23 15:30 | 42.08592 | 46.37264 | 24653 ft | 409 kts | 234° |
| 2026-04-23 15:30 | 42.06970 | 46.34153 | 24052 ft | 401 kts | 242° |
| 2026-04-23 15:30 | 42.05578 | 46.30978 | 23776 ft | 387 kts | 241° |
| 2026-04-23 15:31 | 42.04187 | 46.27895 | 23467 ft | 386 kts | 240° |
| 2026-04-23 15:31 | 42.02778 | 46.24796 | 23141 ft | 389 kts | 240° |
| 2026-04-23 15:31 | 42.01372 | 46.21706 | 22426 ft | 386 kts | 240° |
| 2026-04-23 15:31 | 41.99979 | 46.18644 | 21768 ft | 382 kts | 240° |
| 2026-04-23 15:32 | 41.98602 | 46.15611 | 21113 ft | 378 kts | 240° |
| 2026-04-23 15:32 | 41.97236 | 46.12601 | 20484 ft | 375 kts | 240° |
| 2026-04-23 15:32 | 41.95899 | 46.09652 | 19854 ft | 372 kts | 240° |
| 2026-04-23 15:32 | 41.94556 | 46.06691 | 19225 ft | 369 kts | 239° |
| 2026-04-23 15:33 | 41.93229 | 46.03769 | 18647 ft | 366 kts | 239° |
| 2026-04-23 15:33 | 41.91905 | 46.00854 | 18048 ft | 364 kts | 239° |
| 2026-04-23 15:33 | 41.90592 | 45.97965 | 17366 ft | 361 kts | 239° |
| 2026-04-23 15:33 | 41.89286 | 45.95096 | 16709 ft | 359 kts | 239° |
| 2026-04-23 15:34 | 41.87989 | 45.92250 | 16071 ft | 356 kts | 239° |
| 2026-04-23 15:34 | 41.86701 | 45.89425 | 15476 ft | 353 kts | 239° |
| 2026-04-23 15:34 | 41.85432 | 45.86646 | 15038 ft | 345 kts | 239° |
| 2026-04-23 15:34 | 41.84188 | 45.83924 | 14593 ft | 339 kts | 239° |
| 2026-04-23 15:35 | 41.82968 | 45.81256 | 14157 ft | 333 kts | 239° |
| 2026-04-23 15:35 | 41.81763 | 45.78623 | 13726 ft | 328 kts | 239° |
| 2026-04-23 15:35 | 41.80624 | 45.76138 | 13269 ft | 323 kts | 238° |
| 2026-04-23 15:35 | 41.79455 | 45.73587 | 12788 ft | 319 kts | 238° |
| 2026-04-23 15:36 | 41.78301 | 45.71071 | 12305 ft | 315 kts | 238° |
| 2026-04-23 15:36 | 41.77159 | 45.68583 | 11866 ft | 312 kts | 238° |
| 2026-04-23 15:36 | 41.76031 | 45.66130 | 11454 ft | 307 kts | 238° |
| 2026-04-23 15:36 | 41.74920 | 45.63714 | 11063 ft | 303 kts | 238° |
| 2026-04-23 15:37 | 41.73820 | 45.61324 | 10652 ft | 299 kts | 237° |
| 2026-04-23 15:37 | 41.72738 | 45.58975 | 10266 ft | 296 kts | 237° |
| 2026-04-23 15:37 | 41.72011 | 45.57396 | 9992 ft | 293 kts | 237° |
| 2026-04-23 15:37 | 41.70602 | 45.54342 | 9489 ft | 290 kts | 237° |
| 2026-04-23 15:38 | 41.69543 | 45.52048 | 9076 ft | 289 kts | 237° |
| 2026-04-23 15:38 | 41.68488 | 45.49766 | 8650 ft | 288 kts | 237° |
| 2026-04-23 15:38 | 41.67433 | 45.47485 | 8229 ft | 288 kts | 236° |
| 2026-04-23 15:38 | 41.66380 | 45.45209 | 7832 ft | 287 kts | 236° |
| 2026-04-23 15:39 | 41.65328 | 45.42938 | 7433 ft | 287 kts | 236° |
| 2026-04-23 15:39 | 41.64275 | 45.40666 | 7034 ft | 286 kts | 235° |
| 2026-04-23 15:39 | 41.63226 | 45.38406 | 6648 ft | 286 kts | 235° |
| 2026-04-23 15:39 | 41.62176 | 45.36142 | 6258 ft | 286 kts | 234° |
| 2026-04-23 15:40 | 41.61127 | 45.33883 | 5873 ft | 286 kts | 234° |
| 2026-04-23 15:40 | 41.60080 | 45.31631 | 5519 ft | 285 kts | 234° |
| 2026-04-23 15:40 | 41.59389 | 45.30147 | 5277 ft | 284 kts | 234° |
| 2026-04-23 15:40 | 41.58526 | 45.28292 | 5001 ft | 282 kts | 234° |
| 2026-04-23 15:41 | 41.57493 | 45.26075 | 4713 ft | 281 kts | 234° |
| 2026-04-23 15:41 | 41.56474 | 45.23884 | 4553 ft | 272 kts | 234° |
| 2026-04-23 15:41 | 41.55510 | 45.21811 | 4529 ft | 253 kts | 234° |
| 2026-04-23 15:41 | 41.54617 | 45.19892 | 4512 ft | 234 kts | 233° |
| 2026-04-23 15:42 | 41.53766 | 45.18071 | 4516 ft | 229 kts | 233° |
| 2026-04-23 15:42 | 41.52924 | 45.16262 | 4506 ft | 231 kts | 236° |
| 2026-04-23 15:42 | 41.52541 | 45.14187 | 4504 ft | 233 kts | 274° |
| 2026-04-23 15:42 | 41.53186 | 45.12301 | 4513 ft | 221 kts | 314° |
| 2026-04-23 15:43 | 41.54284 | 45.10927 | 4518 ft | 215 kts | 319° |
| 2026-04-23 15:43 | 41.55419 | 45.09626 | 4371 ft | 214 kts | 320° |
| 2026-04-23 15:43 | 41.56513 | 45.08303 | 4088 ft | 210 kts | 318° |
| 2026-04-23 15:43 | 41.57561 | 45.06978 | 3817 ft | 206 kts | 317° |
| 2026-04-23 15:44 | 41.58586 | 45.05674 | 3544 ft | 199 kts | 318° |
| 2026-04-23 15:44 | 41.59562 | 45.04431 | 3318 ft | 185 kts | 319° |
| 2026-04-23 15:44 | 41.60418 | 45.03344 | 3066 ft | 169 kts | 319° |
| 2026-04-23 15:44 | 41.61229 | 45.02316 | 2839 ft | 159 kts | 319° |
| 2026-04-23 15:45 | 41.62010 | 45.01325 | 2603 ft | 151 kts | 317° |
| 2026-04-23 15:45 | 41.62748 | 45.00387 | 2358 ft | 142 kts | 317° |
| 2026-04-23 15:45 | 41.63491 | 44.99466 | 2003 ft | 156 kts | 315° |
| 2026-04-23 15:45 | 41.64267 | 44.98440 | 1901 ft | 153 kts | 313° |
| 2026-04-23 15:46 | 41.65064 | 44.97461 | 1725 ft | 157 kts | 314° |
| 2026-04-23 15:46 | 41.65837 | 44.96457 | 1550 ft | 150 kts | 314° |
| 2026-04-23 15:46 | 41.66537 | 44.95578 | 1521 ft | 123 kts | 317° |
| 2026-04-23 15:46 | 41.66860 | 44.95178 | 1525 ft | 14 kts | 343° |
| 2026-04-23 15:47 | 41.66941 | 44.95245 | 1520 ft | 14 kts | 44° |
| 2026-04-23 15:47 | 41.67009 | 44.95333 | 1523 ft | 13 kts | 44° |
| 2026-04-23 15:47 | 41.67075 | 44.95417 | 1521 ft | 13 kts | 44° |
| 2026-04-23 15:47 | 41.67143 | 44.95504 | 1523 ft | 15 kts | 44° |
| 2026-04-23 15:48 | 41.67216 | 44.95600 | 1525 ft | 13 kts | 44° |
| 2026-04-23 15:48 | 41.67211 | 44.95700 | 1526 ft | 13 kts | 134° |
| 2026-04-23 15:48 | 41.67138 | 44.95802 | 1526 ft | 17 kts | 134° |
| 2026-04-23 15:48 | 41.67062 | 44.95930 | 1524 ft | 18 kts | 121° |
| 2026-04-23 15:49 | 41.66983 | 44.96050 | 1522 ft | 17 kts | 133° |
| 2026-04-23 15:49 | 41.66915 | 44.96150 | 1521 ft | 11 kts | 129° |
| 2026-04-23 15:49 | 41.66865 | 44.96229 | 1523 ft | 11 kts | 133° |
| 2026-04-23 15:49 | 41.66814 | 44.96300 | 1523 ft | 11 kts | 133° |
| 2026-04-23 15:50 | 41.66779 | 44.96379 | 1526 ft | 10 kts | 76° |
| 2026-04-23 15:50 | 41.66824 | 44.96445 | 1519 ft | 3 kts | 43° |
| 2026-04-23 15:50 | 41.66825 | 44.96445 | 1519 ft | 0 kts | 43° |